- Siena (Round Rock, TX) - Nearby METAR Reports

Nearby METAR Reports

 

KEDC - Austin Exec, Texas, USA
Distance from station: SSE 10mi, 17km
Updated: Sun, 25-Sep-2022 12:15pm CDT
Mostly cloudy
Mostly cloudy
 Wind from calm
Wind: Calm
Temperature: 90°F , 32°C
Heat Index: 93°F , 34°C
Dew Point: 66°F , 19°C
Humidity: 46%
Barometer: 30.00 inHg , 1015.9 hPa
Clouds: Mostly cloudy
Visibility: 10 miles , 16 km
Cloud details: Mostly cloudy 4200 ft
2022/09/25 17:15 KEDC 251715Z AUTO 00000KT 10SM BKN042 32/19 A3000 RMK AO2
KGTU - Georgetown, Texas, USA
Distance from station: NNW 11mi, 17km
Updated: Sun, 25-Sep-2022 11:56am CDT
Partly cloudy
Partly cloudy
 Wind from calm
Wind: Calm
Temperature: 88°F , 31°C
Heat Index: 92°F , 33°C
Dew Point: 68°F , 20°C
Humidity: 52%
Barometer: 30.04 inHg , 1017.3 hPa
Clouds: Partly cloudy
Visibility: 10 miles , 16 km
Cloud details: Partly cloudy 3800 ft
2022/09/25 16:56 KGTU 251656Z 00000KT 10SM SCT038 31/20 A3004 RMK AO2 SLP164 T03110200
 
KATT - Austin/Mabry, Texas, USA
Distance from station: SSW 18mi, 30km
Updated: Sun, 25-Sep-2022 11:51am CDT
Clear
Clear
 
Temperature: 90°F , 32°C
Heat Index: 96°F , 36°C
Dew Point: 70°F , 21°C
Humidity: 52%
Barometer: 30.02 inHg , 1016.6 hPa
Clouds: Clear
Visibility: 10 miles , 16 km
2022/09/25 16:51 KATT 251651Z AUTO 10SM CLR 32/21 A3002 RMK AO2 SLP150 T03170206
KRYW - Lago Vista, Texas, USA
Distance from station: W 22mi, 35km
Updated: Sun, 25-Sep-2022 12:15pm CDT

 Wind from calm
Wind: Calm
Temperature: 93°F , 34°C
Heat Index: 97°F , 36°C
Dew Point: 68°F , 20°C
Humidity: 44%
Barometer: 30.04 inHg , 1017.3 hPa
Visibility: 10 miles , 16 km
2022/09/25 17:15 KRYW 251715Z AUTO 00000KT 10SM 34/20 A3004 RMK AO2 T03350196
 
KAUS - Austin, Texas, USA
Distance from station: S 25mi, 41km
Updated: Sun, 25-Sep-2022 11:53am CDT
Few Clouds
Few Clouds
 Wind from varies
Wind: varies 5 mph , 7 km/h
Temperature: 88°F , 31°C
Heat Index: 91°F , 33°C
Dew Point: 66°F , 19°C
Humidity: 49%
Barometer: 30.00 inHg , 1015.9 hPa
Clouds: Few Clouds
Visibility: 10 miles , 16 km
Cloud details: Few Clouds 3600 ft
2022/09/25 16:53 KAUS 251653Z VRB04KT 10SM FEW036 31/19 A3000 RMK AO2 SLP148 T03060194 $
KILE - Killeen Muni, Texas, USA
Distance from station: N 36mi, 58km
Updated: Sun, 25-Sep-2022 11:56am CDT
Clear
Clear
 Wind from WSW
Wind: WSW 5 mph , 7 km/h
Temperature: 88°F , 31°C
Heat Index: 93°F , 34°C
Dew Point: 70°F , 21°C
Humidity: 55%
Barometer: 30.03 inHg , 1016.9 hPa
Clouds: Clear
Visibility: 10 miles , 16 km
2022/09/25 16:56 KILE 251656Z AUTO 25004KT 10SM CLR 31/21 A3003 RMK AO2 SLP157 T03060211
 
KGRK - Gray/Ft Hood, Texas, USA
Distance from station: NNW 38mi, 62km
Updated: Sun, 25-Sep-2022 11:55am CDT
Few Clouds
Few Clouds
 Wind from calm
Wind: Calm
Temperature: 88°F , 31°C
Heat Index: 92°F , 33°C
Dew Point: 68°F , 20°C
Humidity: 52%
Barometer: 30.00 inHg , 1015.9 hPa
Clouds: Few Clouds
Visibility: 10 miles , 16 km
Cloud details: Few Clouds 4000 ft
Few Clouds 4700 ft
2022/09/25 16:55 KGRK 251655Z AUTO 00000KT 10SM FEW040 FEW047 31/20 A3000 RMK AO2 SLP146 T03100196
KBMQ - Burnet, Texas, USA
Distance from station: WNW 39mi, 64km
Updated: Sun, 25-Sep-2022 11:53am CDT
Few Clouds
Few Clouds
 Wind from varies
Wind: varies 6 mph , 9 km/h
Temperature: 88°F , 31°C
Heat Index: 91°F , 33°C
Dew Point: 66°F , 19°C
Humidity: 49%
Barometer: 30.06 inHg , 1017.9 hPa
Clouds: Few Clouds
Visibility: 10 miles , 16 km
Cloud details: Few Clouds 4100 ft
2022/09/25 16:53 KBMQ 251653Z AUTO VRB05KT 10SM FEW041 31/19 A3006 RMK AO2 SLP158 T03110194
 
KHLR - Ft Hood/Killeen, Texas, USA
Distance from station: N 41mi, 66km
Updated: Sun, 25-Sep-2022 11:55am CDT
Clear
Clear
 Wind from calm
Wind: Calm
Temperature: 88°F , 31°C
Heat Index: 92°F , 33°C
Dew Point: 68°F , 20°C
Humidity: 52%
Barometer: 30.03 inHg , 1016.9 hPa
Clouds: Clear
Visibility: 10 miles , 16 km
2022/09/25 16:55 KHLR 251655Z AUTO 00000KT 10SM CLR 31/20 A3003 RMK AO2 SLP157 T03110197
KTPL - Temple/Miller, Texas, USA
Distance from station: NNE 42mi, 68km
Updated: Sun, 25-Sep-2022 11:51am CDT
Few Clouds
Few Clouds
 Wind from NW
Wind: NW 5 mph , 7 km/h
Temperature: 91°F , 33°C
Heat Index: 96°F , 36°C
Dew Point: 70°F , 21°C
Humidity: 49%
Barometer: 30.03 inHg , 1016.9 hPa
Clouds: Few Clouds
Visibility: 10 miles , 16 km
Cloud details: Few Clouds 3900 ft
2022/09/25 16:51 KTPL 251651Z AUTO 32004KT 10SM FEW039 33/21 A3003 RMK AO2 SLP155 T03330211
 
KT35 - Cameron, Texas, USA
Distance from station: ENE 45mi, 72km
Updated: Sun, 25-Sep-2022 12:15pm CDT
Partly cloudy
Partly cloudy
 Wind from calm
Wind: Calm
Temperature: 90°F , 32°C
Heat Index: 94°F , 34°C
Dew Point: 68°F , 20°C
Humidity: 49%
Barometer: 30.01 inHg , 1016.3 hPa
Clouds: Partly cloudy
Visibility: 10 miles , 16 km
Cloud details: Partly cloudy 4100 ft
2022/09/25 17:15 KT35 251715Z AUTO 00000KT 10SM SCT041 32/20 A3001 RMK AO2 T03210199
KDZB - Horseshoe Bay, Texas, USA
Distance from station: W 45mi, 73km
Updated: Sun, 25-Sep-2022 12:15pm CDT
Clear
Clear
 Wind from NNW
Wind: NNW 5 mph , 7 km/h
Temperature: 88°F , 31°C
Heat Index: 91°F , 33°C
Dew Point: 66°F , 19°C
Humidity: 49%
Barometer: 30.04 inHg , 1017.3 hPa
Clouds: Clear
Visibility: 10 miles , 16 km
2022/09/25 17:15 KDZB 251715Z AUTO 34004KT 10SM CLR 31/19 A3004 RMK AO2 T03120189
 
KGYB - Giddings-Lee, Texas, USA
Distance from station: SE 45mi, 73km
Updated: Sun, 25-Sep-2022 12:15pm CDT
Partly cloudy
Partly cloudy
 Wind from ESE
Wind: ESE 5 mph , 7 km/h
Temperature: 88°F , 31°C
Heat Index: 92°F , 33°C
Dew Point: 68°F , 20°C
Humidity: 52%
Barometer: 30.02 inHg , 1016.6 hPa
Clouds: Partly cloudy
Visibility: 10 miles , 16 km
Cloud details: Partly cloudy 3700 ft
2022/09/25 17:15 KGYB 251715Z AUTO 12004KT 10SM SCT037 31/20 A3002 RMK AO2 T03110201
KHYI - San Marcos, Texas, USA
Distance from station: SSW 48mi, 78km
Updated: Sun, 25-Sep-2022 11:56am CDT
Clear
Clear
 Wind from SSW
Wind: SSW 3 mph , 6 km/h
Temperature: 84°F , 29°C
Heat Index: 88°F , 31°C
Dew Point: 70°F , 21°C
Humidity: 62%
Barometer: 30.04 inHg , 1017.3 hPa
Clouds: Clear
Visibility: 10 miles , 16 km
2022/09/25 16:56 KHYI 251656Z 21003KT 10SM CLR 29/21 A3004 RMK AO2 SLPNO T02930209 $
 
KLZZ - Lampasas, Texas, USA
Distance from station: NW 52mi, 84km
Updated: Sun, 25-Sep-2022 12:15pm CDT
Partly cloudy
Partly cloudy
 Wind from calm
Wind: Calm
Temperature: 88°F , 31°C
Heat Index: 91°F , 33°C
Dew Point: 66°F , 19°C
Humidity: 49%
Barometer: 30.00 inHg , 1015.9 hPa
Clouds: Partly cloudy
Visibility: 10 miles , 16 km
Cloud details: Partly cloudy 4400 ft
Partly cloudy 5000 ft
2022/09/25 17:15 KLZZ 251715Z AUTO 00000KT 10SM SCT044 SCT050 31/19 A3000 RMK AO2 T03060192
KRWV - Caldwell, Texas, USA
Distance from station: E 54mi, 87km
Updated: Sun, 25-Sep-2022 12:15pm CDT
Partly cloudy
Partly cloudy
 Wind from WNW
Wind: WNW 3 mph , 6 km/h
Temperature: 88°F , 31°C
Heat Index: 92°F , 33°C
Dew Point: 68°F , 20°C
Humidity: 52%
Barometer: 30.01 inHg , 1016.3 hPa
Clouds: Partly cloudy
Visibility: 10 miles , 16 km
Cloud details: Partly cloudy 3900 ft
2022/09/25 17:15 KRWV 251715Z AUTO 29003KT 10SM SCT039 31/20 A3001 RMK AO2 T03070205
 
K3T5 - La Grange, Texas, USA
Distance from station: SE 59mi, 95km
Updated: Thu, 22-Sep-2022 11:55am CDT
NOT Current

 
2022/09/22 16:55 K3T5 221655Z AUTO RMK AO2 PWINO PNO TSNO
KGOP - Gatesville, Texas, USA
Distance from station: N 61mi, 99km
Updated: Sun, 25-Sep-2022 12:15pm CDT
Mostly cloudy
Mostly cloudy
 
Temperature: 90°F , 32°C
Heat Index: 93°F , 34°C
Dew Point: 66°F , 19°C
Humidity: 46%
Barometer: 30.03 inHg , 1016.9 hPa
Clouds: Mostly cloudy
Visibility: 10 miles , 16 km
Cloud details: Mostly cloudy 4500 ft
2022/09/25 17:15 KGOP 251715Z AUTO 10SM BKN045 32/19 A3003 RMK AO2
 
KLHB - Hearne Muni, Texas, USA
Distance from station: ENE 63mi, 101km
Updated: Sun, 25-Sep-2022 12:15pm CDT
Clear
Clear
 Wind from calm
Wind: Calm
Temperature: 90°F , 32°C
Heat Index: 96°F , 36°C
Dew Point: 70°F , 21°C
Humidity: 52%
Barometer: 30.01 inHg , 1016.3 hPa
Clouds: Clear
Visibility: 10 miles , 16 km
2022/09/25 17:15 KLHB 251715Z AUTO 00000KT 10SM CLR 32/21 A3001 RMK AO2 T03150208
KBAZ - New Braunfels, Texas, USA
Distance from station: SSW 63mi, 102km
Updated: Sun, 25-Sep-2022 11:51am CDT
Mostly cloudy
Mostly cloudy
 Wind from SSE
Wind: SSE 6 mph , 9 km/h
Temperature: 91°F , 33°C
Heat Index: 96°F , 36°C
Dew Point: 70°F , 21°C
Humidity: 49%
Barometer: 30.00 inHg , 1015.9 hPa
Clouds: Mostly cloudy
Visibility: 10 miles , 16 km
Cloud details: Mostly cloudy 4000 ft
2022/09/25 16:51 KBAZ 251651Z 16005KT 10SM BKN040 33/21 A3000 RMK AO2 SLP148 T03280206